createdAt,value
2022-08-28T19:51:38.600Z,12.60
2022-08-28T19:54:11.406Z,11.87
2022-08-28T19:56:40.366Z,11.67
2022-08-28T19:59:10.417Z,15.20
2022-08-28T20:01:41.630Z,11.70
2022-08-28T20:04:13.840Z,11.67
2022-08-28T20:06:44.053Z,12.90
2022-08-28T20:09:13.303Z,11.50
2022-08-28T20:11:45.336Z,12.00
2022-08-28T20:14:15.095Z,13.00
2022-08-28T20:16:46.011Z,11.40
2022-08-28T20:19:15.285Z,12.70
2022-08-28T20:21:46.421Z,13.10
2022-08-28T20:24:17.942Z,13.27
2022-08-28T20:26:46.355Z,16.33
2022-08-28T20:29:14.792Z,16.93
2022-08-28T20:31:45.557Z,16.73
2022-08-28T20:34:16.600Z,15.13
2022-08-28T20:36:46.708Z,15.60
2022-08-28T20:39:15.616Z,17.63
2022-08-28T20:41:46.021Z,19.47
2022-08-28T20:44:15.878Z,18.23
2022-08-28T20:46:44.557Z,15.90
2022-08-28T20:49:22.116Z,13.47
2022-08-28T20:51:56.899Z,14.90
2022-08-28T20:54:27.873Z,17.13
2022-08-28T20:56:57.722Z,14.73
2022-08-28T20:59:34.571Z,15.30
2022-08-28T21:02:10.487Z,15.80
2022-08-28T21:04:40.137Z,17.73
2022-08-28T21:07:10.303Z,19.43
2022-08-28T21:09:58.136Z,16.40
2022-08-28T21:12:27.078Z,16.03
2022-08-28T21:14:55.333Z,22.90
2022-08-28T21:17:28.846Z,17.43
2022-08-28T21:19:59.027Z,16.43
2022-08-28T21:22:29.037Z,20.10
2022-08-28T21:24:57.223Z,19.40
2022-08-28T21:27:25.499Z,22.07
2022-08-28T21:29:56.232Z,20.00
2022-08-28T21:32:24.507Z,15.97
2022-08-28T21:34:53.160Z,18.60
2022-08-28T21:37:21.488Z,18.47
2022-08-28T21:39:51.078Z,18.17
2022-08-28T21:42:19.511Z,15.93
2022-08-28T21:44:51.921Z,18.20
2022-08-28T21:47:21.542Z,18.50
2022-08-28T21:49:50.479Z,20.47
2022-08-28T21:52:18.929Z,17.50
2022-08-28T21:54:48.006Z,17.30
2022-08-28T21:57:17.816Z,18.63
2022-08-28T21:59:46.129Z,17.03
2022-08-28T22:02:14.378Z,26.27
2022-08-28T22:04:42.640Z,18.57
2022-08-28T22:07:12.068Z,17.13
2022-08-28T22:09:40.409Z,21.23
2022-08-28T22:12:09.488Z,19.63
2022-08-28T22:14:39.352Z,18.07
2022-08-28T22:17:11.610Z,18.57
2022-08-28T22:19:40.901Z,21.80
2022-08-28T22:22:26.887Z,20.77
2022-08-28T22:24:55.220Z,23.53
2022-08-28T22:27:23.842Z,20.90
2022-08-28T22:29:53.778Z,19.83
2022-08-28T22:32:25.660Z,18.37
2022-08-28T22:34:55.859Z,19.53
2022-08-28T22:37:25.041Z,16.33
2022-08-28T22:39:53.520Z,19.90
2022-08-28T22:42:21.809Z,15.90
2022-08-28T22:44:50.127Z,18.70
2022-08-28T22:47:19.782Z,15.80
2022-08-28T22:49:48.707Z,18.57
2022-08-28T22:52:17.413Z,20.40
2022-08-28T22:54:45.742Z,16.53
2022-08-28T22:57:15.215Z,18.17
2022-08-28T22:59:43.596Z,16.07
2022-08-28T23:02:12.286Z,17.43
2022-08-28T23:04:42.010Z,20.60
2022-08-28T23:07:10.244Z,18.97
2022-08-28T23:09:41.722Z,18.30
2022-08-28T23:12:10.403Z,18.47
2022-08-28T23:14:38.996Z,19.07
2022-08-28T23:17:07.352Z,20.00
2022-08-28T23:19:36.402Z,24.30
2022-08-28T23:22:06.165Z,17.13
2022-08-28T23:24:38.051Z,15.47
2022-08-28T23:27:32.507Z,22.50
2022-08-28T23:29:56.473Z,17.47
2022-08-28T23:32:24.829Z,20.40
2022-08-28T23:34:53.094Z,20.43
2022-08-28T23:37:22.831Z,21.33
2022-08-28T23:39:51.117Z,18.87
2022-08-28T23:42:22.767Z,23.03
2022-08-28T23:44:51.069Z,23.97
2022-08-28T23:47:19.365Z,20.33
2022-08-28T23:49:47.630Z,25.47
2022-08-28T23:52:15.891Z,24.40
2022-08-28T23:54:45.608Z,23.47
2022-08-28T23:57:13.882Z,23.90
2022-08-28T23:59:43.961Z,24.37
